sensor_id;sensor_type;location;lat;lon;timestamp;temperature;humidity
21149;DHT22;10732;51.472;6.466;2023-09-18T00:01:50;18.80;99.90
21149;DHT22;10732;51.472;6.466;2023-09-18T00:04:15;18.80;99.90
21149;DHT22;10732;51.472;6.466;2023-09-18T00:06:41;18.80;99.90
21149;DHT22;10732;51.472;6.466;2023-09-18T00:09:07;18.80;99.90
21149;DHT22;10732;51.472;6.466;2023-09-18T00:11:37;18.70;99.90
21149;DHT22;10732;51.472;6.466;2023-09-18T00:14:04;18.80;99.90
21149;DHT22;10732;51.472;6.466;2023-09-18T00:16:29;18.80;99.90
21149;DHT22;10732;51.472;6.466;2023-09-18T00:18:55;18.80;99.90
21149;DHT22;10732;51.472;6.466;2023-09-18T00:21:20;18.80;99.90
21149;DHT22;10732;51.472;6.466;2023-09-18T00:23:46;18.80;99.90
21149;DHT22;10732;51.472;6.466;2023-09-18T00:26:12;18.80;99.90
21149;DHT22;10732;51.472;6.466;2023-09-18T00:28:37;18.80;99.90
21149;DHT22;10732;51.472;6.466;2023-09-18T00:31:03;18.80;99.90
21149;DHT22;10732;51.472;6.466;2023-09-18T00:33:28;18.80;99.90
21149;DHT22;10732;51.472;6.466;2023-09-18T00:35:54;18.80;99.90
21149;DHT22;10732;51.472;6.466;2023-09-18T00:38:20;18.70;99.90
21149;DHT22;10732;51.472;6.466;2023-09-18T00:40:46;18.80;99.90
21149;DHT22;10732;51.472;6.466;2023-09-18T00:43:11;18.70;99.90
21149;DHT22;10732;51.472;6.466;2023-09-18T00:45:40;18.70;99.90
21149;DHT22;10732;51.472;6.466;2023-09-18T00:48:07;18.70;99.90
21149;DHT22;10732;51.472;6.466;2023-09-18T00:50:33;18.70;99.90
21149;DHT22;10732;51.472;6.466;2023-09-18T00:52:59;18.70;99.90
21149;DHT22;10732;51.472;6.466;2023-09-18T00:55:27;18.80;99.90
21149;DHT22;10732;51.472;6.466;2023-09-18T00:57:55;18.80;99.90
21149;DHT22;10732;51.472;6.466;2023-09-18T01:00:20;18.80;99.90
21149;DHT22;10732;51.472;6.466;2023-09-18T01:02:47;18.80;99.90
21149;DHT22;10732;51.472;6.466;2023-09-18T01:05:13;18.80;99.90
21149;DHT22;10732;51.472;6.466;2023-09-18T01:07:42;18.80;99.90
21149;DHT22;10732;51.472;6.466;2023-09-18T01:10:08;18.80;99.90
21149;DHT22;10732;51.472;6.466;2023-09-18T01:12:40;18.80;99.90
21149;DHT22;10732;51.472;6.466;2023-09-18T01:15:17;18.80;99.90
21149;DHT22;10732;51.472;6.466;2023-09-18T01:17:43;18.80;99.90
21149;DHT22;10732;51.472;6.466;2023-09-18T01:20:10;18.80;99.90
21149;DHT22;10732;51.472;6.466;2023-09-18T01:22:36;18.80;99.90
21149;DHT22;10732;51.472;6.466;2023-09-18T01:25:02;18.80;99.90
21149;DHT22;10732;51.472;6.466;2023-09-18T01:27:28;18.80;99.90
21149;DHT22;10732;51.472;6.466;2023-09-18T01:29:53;18.80;99.90
21149;DHT22;10732;51.472;6.466;2023-09-18T01:32:19;18.80;99.90
21149;DHT22;10732;51.472;6.466;2023-09-18T01:34:48;18.80;99.90
21149;DHT22;10732;51.472;6.466;2023-09-18T01:37:16;18.80;99.90
21149;DHT22;10732;51.472;6.466;2023-09-18T01:39:43;18.90;99.90
21149;DHT22;10732;51.472;6.466;2023-09-18T01:42:10;18.90;99.90
21149;DHT22;10732;51.472;6.466;2023-09-18T01:44:36;19.00;99.90
21149;DHT22;10732;51.472;6.466;2023-09-18T01:47:14;19.00;99.90
21149;DHT22;10732;51.472;6.466;2023-09-18T01:49:41;19.00;99.90
21149;DHT22;10732;51.472;6.466;2023-09-18T01:52:08;19.00;99.90
21149;DHT22;10732;51.472;6.466;2023-09-18T01:54:35;19.10;99.90
21149;DHT22;10732;51.472;6.466;2023-09-18T01:57:01;19.10;99.90
21149;DHT22;10732;51.472;6.466;2023-09-18T01:59:27;19.20;99.90
21149;DHT22;10732;51.472;6.466;2023-09-18T02:01:53;19.30;99.90
21149;DHT22;10732;51.472;6.466;2023-09-18T02:04:22;19.30;99.90
21149;DHT22;10732;51.472;6.466;2023-09-18T02:06:49;19.30;99.90
21149;DHT22;10732;51.472;6.466;2023-09-18T02:09:14;19.40;99.90
21149;DHT22;10732;51.472;6.466;2023-09-18T02:11:42;19.40;99.90
21149;DHT22;10732;51.472;6.466;2023-09-18T02:14:09;19.30;99.90
21149;DHT22;10732;51.472;6.466;2023-09-18T02:16:36;19.30;99.90
21149;DHT22;10732;51.472;6.466;2023-09-18T02:19:02;19.40;99.90
21149;DHT22;10732;51.472;6.466;2023-09-18T02:21:28;19.40;99.90
21149;DHT22;10732;51.472;6.466;2023-09-18T02:23:54;19.50;99.90
21149;DHT22;10732;51.472;6.466;2023-09-18T02:26:21;19.50;99.90
21149;DHT22;10732;51.472;6.466;2023-09-18T02:28:47;19.60;99.90
21149;DHT22;10732;51.472;6.466;2023-09-18T02:31:13;19.70;99.90
21149;DHT22;10732;51.472;6.466;2023-09-18T02:33:40;19.70;99.90
21149;DHT22;10732;51.472;6.466;2023-09-18T02:36:06;19.80;99.90
21149;DHT22;10732;51.472;6.466;2023-09-18T02:38:32;19.80;99.90
21149;DHT22;10732;51.472;6.466;2023-09-18T02:40:58;19.80;99.90
21149;DHT22;10732;51.472;6.466;2023-09-18T02:43:24;19.90;99.90
21149;DHT22;10732;51.472;6.466;2023-09-18T02:45:50;20.00;99.90
21149;DHT22;10732;51.472;6.466;2023-09-18T02:48:16;20.00;99.90
21149;DHT22;10732;51.472;6.466;2023-09-18T02:50:42;20.00;99.90
21149;DHT22;10732;51.472;6.466;2023-09-18T02:53:21;20.10;99.90
21149;DHT22;10732;51.472;6.466;2023-09-18T02:55:49;20.10;99.90
21149;DHT22;10732;51.472;6.466;2023-09-18T02:58:15;20.10;99.90
21149;DHT22;10732;51.472;6.466;2023-09-18T03:00:46;20.20;99.90
21149;DHT22;10732;51.472;6.466;2023-09-18T03:03:13;20.20;99.90
21149;DHT22;10732;51.472;6.466;2023-09-18T03:05:40;20.20;99.90
21149;DHT22;10732;51.472;6.466;2023-09-18T03:08:05;20.30;99.90
21149;DHT22;10732;51.472;6.466;2023-09-18T03:10:35;20.30;99.90
21149;DHT22;10732;51.472;6.466;2023-09-18T03:13:02;20.40;99.90
21149;DHT22;10732;51.472;6.466;2023-09-18T03:15:28;20.40;99.90
21149;DHT22;10732;51.472;6.466;2023-09-18T03:17:54;20.40;99.90
21149;DHT22;10732;51.472;6.466;2023-09-18T03:20:22;20.40;99.90
21149;DHT22;10732;51.472;6.466;2023-09-18T03:22:50;20.40;99.90
21149;DHT22;10732;51.472;6.466;2023-09-18T03:25:15;20.40;99.90
21149;DHT22;10732;51.472;6.466;2023-09-18T03:27:41;20.40;99.90
21149;DHT22;10732;51.472;6.466;2023-09-18T03:30:07;20.40;99.90
21149;DHT22;10732;51.472;6.466;2023-09-18T03:32:33;20.30;99.90
21149;DHT22;10732;51.472;6.466;2023-09-18T03:34:58;20.30;99.90
21149;DHT22;10732;51.472;6.466;2023-09-18T03:37:24;20.40;99.90
21149;DHT22;10732;51.472;6.466;2023-09-18T03:39:49;20.30;99.90
21149;DHT22;10732;51.472;6.466;2023-09-18T03:42:15;20.30;99.90
21149;DHT22;10732;51.472;6.466;2023-09-18T03:44:40;20.50;99.90
21149;DHT22;10732;51.472;6.466;2023-09-18T03:47:06;20.40;99.90
21149;DHT22;10732;51.472;6.466;2023-09-18T03:49:31;20.40;99.90
21149;DHT22;10732;51.472;6.466;2023-09-18T03:51:57;20.40;99.90
21149;DHT22;10732;51.472;6.466;2023-09-18T03:54:22;20.50;99.90
21149;DHT22;10732;51.472;6.466;2023-09-18T03:56:48;20.50;99.90
21149;DHT22;10732;51.472;6.466;2023-09-18T03:59:13;20.60;99.90
21149;DHT22;10732;51.472;6.466;2023-09-18T04:01:39;20.50;99.90
21149;DHT22;10732;51.472;6.466;2023-09-18T04:04:05;20.50;99.90
21149;DHT22;10732;51.472;6.466;2023-09-18T04:06:42;20.30;99.90
21149;DHT22;10732;51.472;6.466;2023-09-18T04:09:08;20.40;99.90
21149;DHT22;10732;51.472;6.466;2023-09-18T04:11:33;20.20;99.90
21149;DHT22;10732;51.472;6.466;2023-09-18T04:14:00;20.20;99.90
21149;DHT22;10732;51.472;6.466;2023-09-18T04:16:26;20.00;99.90
21149;DHT22;10732;51.472;6.466;2023-09-18T04:18:53;19.80;99.90
21149;DHT22;10732;51.472;6.466;2023-09-18T04:21:19;19.70;99.90
21149;DHT22;10732;51.472;6.466;2023-09-18T04:23:46;19.60;99.90
21149;DHT22;10732;51.472;6.466;2023-09-18T04:26:12;19.50;99.90
21149;DHT22;10732;51.472;6.466;2023-09-18T04:28:39;19.50;99.90
21149;DHT22;10732;51.472;6.466;2023-09-18T04:31:05;19.50;99.90
21149;DHT22;10732;51.472;6.466;2023-09-18T04:33:30;19.50;99.90
21149;DHT22;10732;51.472;6.466;2023-09-18T04:35:56;19.50;99.90
21149;DHT22;10732;51.472;6.466;2023-09-18T04:38:21;19.50;99.90
21149;DHT22;10732;51.472;6.466;2023-09-18T04:40:47;19.50;99.90
21149;DHT22;10732;51.472;6.466;2023-09-18T04:43:12;19.50;99.90
21149;DHT22;10732;51.472;6.466;2023-09-18T04:45:38;19.50;99.90
21149;DHT22;10732;51.472;6.466;2023-09-18T04:48:04;19.50;99.90
21149;DHT22;10732;51.472;6.466;2023-09-18T04:50:31;19.40;99.90
21149;DHT22;10732;51.472;6.466;2023-09-18T04:52:57;19.40;99.90
21149;DHT22;10732;51.472;6.466;2023-09-18T04:55:23;19.30;99.90
21149;DHT22;10732;51.472;6.466;2023-09-18T04:57:48;19.30;99.90
21149;DHT22;10732;51.472;6.466;2023-09-18T05:00:14;19.30;99.90
21149;DHT22;10732;51.472;6.466;2023-09-18T05:02:40;19.30;99.90
21149;DHT22;10732;51.472;6.466;2023-09-18T05:05:06;19.30;99.90
21149;DHT22;10732;51.472;6.466;2023-09-18T05:07:34;19.20;99.90
21149;DHT22;10732;51.472;6.466;2023-09-18T05:09:59;19.20;99.90
21149;DHT22;10732;51.472;6.466;2023-09-18T05:12:25;19.10;99.90
21149;DHT22;10732;51.472;6.466;2023-09-18T05:14:51;19.10;99.90
21149;DHT22;10732;51.472;6.466;2023-09-18T05:17:17;19.10;99.90
21149;DHT22;10732;51.472;6.466;2023-09-18T05:19:43;19.00;99.90
21149;DHT22;10732;51.472;6.466;2023-09-18T05:22:09;19.00;99.90
21149;DHT22;10732;51.472;6.466;2023-09-18T05:24:38;18.90;99.90
21149;DHT22;10732;51.472;6.466;2023-09-18T05:27:04;19.00;99.90
21149;DHT22;10732;51.472;6.466;2023-09-18T05:29:31;18.90;99.90
21149;DHT22;10732;51.472;6.466;2023-09-18T05:31:57;18.90;99.90
21149;DHT22;10732;51.472;6.466;2023-09-18T05:34:23;18.90;99.90
21149;DHT22;10732;51.472;6.466;2023-09-18T05:36:48;18.90;99.90
21149;DHT22;10732;51.472;6.466;2023-09-18T05:39:14;18.90;99.90
21149;DHT22;10732;51.472;6.466;2023-09-18T05:41:39;19.00;99.90
21149;DHT22;10732;51.472;6.466;2023-09-18T05:44:05;19.00;99.90
21149;DHT22;10732;51.472;6.466;2023-09-18T05:46:34;19.00;99.90
21149;DHT22;10732;51.472;6.466;2023-09-18T05:49:00;19.00;99.90
21149;DHT22;10732;51.472;6.466;2023-09-18T05:51:26;19.00;99.90
21149;DHT22;10732;51.472;6.466;2023-09-18T05:53:52;19.00;99.90
21149;DHT22;10732;51.472;6.466;2023-09-18T05:56:17;19.00;99.90
21149;DHT22;10732;51.472;6.466;2023-09-18T05:58:43;19.00;99.90
21149;DHT22;10732;51.472;6.466;2023-09-18T06:01:09;19.10;99.90
21149;DHT22;10732;51.472;6.466;2023-09-18T06:03:35;19.20;99.90
21149;DHT22;10732;51.472;6.466;2023-09-18T06:06:07;19.20;99.90
21149;DHT22;10732;51.472;6.466;2023-09-18T06:08:33;19.30;99.90
21149;DHT22;10732;51.472;6.466;2023-09-18T06:10:59;19.30;99.90
21149;DHT22;10732;51.472;6.466;2023-09-18T06:13:25;19.30;99.90
21149;DHT22;10732;51.472;6.466;2023-09-18T06:15:52;19.30;99.90
21149;DHT22;10732;51.472;6.466;2023-09-18T06:18:20;19.30;99.90
21149;DHT22;10732;51.472;6.466;2023-09-18T06:20:48;19.40;99.90
21149;DHT22;10732;51.472;6.466;2023-09-18T06:23:14;19.30;99.90
21149;DHT22;10732;51.472;6.466;2023-09-18T06:25:40;19.40;99.90
21149;DHT22;10732;51.472;6.466;2023-09-18T06:28:06;19.40;99.90
21149;DHT22;10732;51.472;6.466;2023-09-18T06:30:32;19.50;99.90
21149;DHT22;10732;51.472;6.466;2023-09-18T06:32:59;19.50;99.90
21149;DHT22;10732;51.472;6.466;2023-09-18T06:35:24;19.50;99.90
21149;DHT22;10732;51.472;6.466;2023-09-18T06:37:50;19.50;99.90
21149;DHT22;10732;51.472;6.466;2023-09-18T06:40:15;19.50;99.90
21149;DHT22;10732;51.472;6.466;2023-09-18T06:42:41;19.50;99.90
21149;DHT22;10732;51.472;6.466;2023-09-18T06:45:07;19.40;99.90
21149;DHT22;10732;51.472;6.466;2023-09-18T06:47:33;19.50;99.90
21149;DHT22;10732;51.472;6.466;2023-09-18T06:49:59;19.50;99.90
21149;DHT22;10732;51.472;6.466;2023-09-18T06:52:26;19.50;99.90
21149;DHT22;10732;51.472;6.466;2023-09-18T06:54:53;19.60;99.90
21149;DHT22;10732;51.472;6.466;2023-09-18T06:57:19;19.70;99.90
21149;DHT22;10732;51.472;6.466;2023-09-18T06:59:46;19.70;99.90
21149;DHT22;10732;51.472;6.466;2023-09-18T07:02:12;19.80;99.90
21149;DHT22;10732;51.472;6.466;2023-09-18T07:04:40;19.80;99.90
21149;DHT22;10732;51.472;6.466;2023-09-18T07:07:13;20.00;99.90
21149;DHT22;10732;51.472;6.466;2023-09-18T07:09:40;20.10;99.90
21149;DHT22;10732;51.472;6.466;2023-09-18T07:12:07;20.20;99.90
21149;DHT22;10732;51.472;6.466;2023-09-18T07:14:32;20.20;99.90
21149;DHT22;10732;51.472;6.466;2023-09-18T07:16:58;20.20;99.90
21149;DHT22;10732;51.472;6.466;2023-09-18T07:19:24;20.20;99.90
21149;DHT22;10732;51.472;6.466;2023-09-18T07:21:50;20.20;99.90
21149;DHT22;10732;51.472;6.466;2023-09-18T07:24:17;20.10;99.90
21149;DHT22;10732;51.472;6.466;2023-09-18T07:26:46;20.10;99.90
21149;DHT22;10732;51.472;6.466;2023-09-18T07:29:13;20.00;99.90
21149;DHT22;10732;51.472;6.466;2023-09-18T07:31:43;20.00;99.90
21149;DHT22;10732;51.472;6.466;2023-09-18T07:34:09;20.00;99.90
21149;DHT22;10732;51.472;6.466;2023-09-18T07:36:35;20.00;99.90
21149;DHT22;10732;51.472;6.466;2023-09-18T07:39:00;19.90;99.90
21149;DHT22;10732;51.472;6.466;2023-09-18T07:41:26;20.00;99.90
21149;DHT22;10732;51.472;6.466;2023-09-18T07:43:52;20.10;99.90
21149;DHT22;10732;51.472;6.466;2023-09-18T07:46:18;20.10;99.90
21149;DHT22;10732;51.472;6.466;2023-09-18T07:48:43;20.20;99.90
21149;DHT22;10732;51.472;6.466;2023-09-18T07:51:12;20.20;99.90
21149;DHT22;10732;51.472;6.466;2023-09-18T07:53:39;20.10;99.90
21149;DHT22;10732;51.472;6.466;2023-09-18T07:56:04;20.20;99.90
21149;DHT22;10732;51.472;6.466;2023-09-18T07:58:31;20.20;99.90
21149;DHT22;10732;51.472;6.466;2023-09-18T08:00:57;20.20;99.90
21149;DHT22;10732;51.472;6.466;2023-09-18T08:03:24;20.30;99.90
21149;DHT22;10732;51.472;6.466;2023-09-18T08:05:53;20.30;99.90
21149;DHT22;10732;51.472;6.466;2023-09-18T08:08:20;20.20;99.90
21149;DHT22;10732;51.472;6.466;2023-09-18T08:10:46;20.50;99.90
21149;DHT22;10732;51.472;6.466;2023-09-18T08:13:12;20.50;99.90
21149;DHT22;10732;51.472;6.466;2023-09-18T08:15:38;20.60;99.90
21149;DHT22;10732;51.472;6.466;2023-09-18T08:18:04;20.40;99.90
21149;DHT22;10732;51.472;6.466;2023-09-18T08:20:29;20.40;99.90
21149;DHT22;10732;51.472;6.466;2023-09-18T08:22:55;20.40;99.90
21149;DHT22;10732;51.472;6.466;2023-09-18T08:25:21;20.60;99.90
21149;DHT22;10732;51.472;6.466;2023-09-18T08:27:47;20.80;99.90
21149;DHT22;10732;51.472;6.466;2023-09-18T08:30:14;20.90;99.90
21149;DHT22;10732;51.472;6.466;2023-09-18T08:32:41;21.20;99.90
21149;DHT22;10732;51.472;6.466;2023-09-18T08:35:07;21.30;99.90
21149;DHT22;10732;51.472;6.466;2023-09-18T08:37:33;21.20;99.90
21149;DHT22;10732;51.472;6.466;2023-09-18T08:39:58;21.10;99.90
21149;DHT22;10732;51.472;6.466;2023-09-18T08:42:28;21.10;99.90
21149;DHT22;10732;51.472;6.466;2023-09-18T08:44:56;21.10;99.90
21149;DHT22;10732;51.472;6.466;2023-09-18T08:47:24;21.00;99.90
21149;DHT22;10732;51.472;6.466;2023-09-18T08:49:50;20.90;99.90
21149;DHT22;10732;51.472;6.466;2023-09-18T08:52:18;21.00;99.90
21149;DHT22;10732;51.472;6.466;2023-09-18T08:54:44;21.40;99.90
21149;DHT22;10732;51.472;6.466;2023-09-18T08:57:11;21.50;99.90
21149;DHT22;10732;51.472;6.466;2023-09-18T08:59:37;21.80;99.90
21149;DHT22;10732;51.472;6.466;2023-09-18T09:02:04;21.70;99.90
21149;DHT22;10732;51.472;6.466;2023-09-18T09:04:30;22.00;99.90
21149;DHT22;10732;51.472;6.466;2023-09-18T09:06:55;21.80;99.90
21149;DHT22;10732;51.472;6.466;2023-09-18T09:09:25;21.80;99.90
21149;DHT22;10732;51.472;6.466;2023-09-18T09:11:52;21.60;99.90
21149;DHT22;10732;51.472;6.466;2023-09-18T09:14:17;21.40;99.90
21149;DHT22;10732;51.472;6.466;2023-09-18T09:16:48;21.10;99.90
21149;DHT22;10732;51.472;6.466;2023-09-18T09:19:18;21.50;99.90
21149;DHT22;10732;51.472;6.466;2023-09-18T09:21:44;21.80;99.90
21149;DHT22;10732;51.472;6.466;2023-09-18T09:24:11;21.50;99.90
21149;DHT22;10732;51.472;6.466;2023-09-18T09:26:40;21.60;99.90
21149;DHT22;10732;51.472;6.466;2023-09-18T09:29:19;21.60;99.90
21149;DHT22;10732;51.472;6.466;2023-09-18T09:31:45;21.50;99.90
21149;DHT22;10732;51.472;6.466;2023-09-18T09:34:12;21.60;99.90
21149;DHT22;10732;51.472;6.466;2023-09-18T09:36:54;21.80;99.90
21149;DHT22;10732;51.472;6.466;2023-09-18T09:39:20;21.70;99.90
21149;DHT22;10732;51.472;6.466;2023-09-18T09:41:48;21.90;99.90
21149;DHT22;10732;51.472;6.466;2023-09-18T09:44:15;21.50;99.90
21149;DHT22;10732;51.472;6.466;2023-09-18T09:46:47;22.20;99.90
21149;DHT22;10732;51.472;6.466;2023-09-18T09:49:13;22.50;99.90
21149;DHT22;10732;51.472;6.466;2023-09-18T09:51:41;22.70;99.90
21149;DHT22;10732;51.472;6.466;2023-09-18T09:54:07;22.80;99.90
21149;DHT22;10732;51.472;6.466;2023-09-18T09:59:11;23.10;99.90
21149;DHT22;10732;51.472;6.466;2023-09-18T10:01:38;23.50;99.90
21149;DHT22;10732;51.472;6.466;2023-09-18T10:04:14;24.60;99.90
21149;DHT22;10732;51.472;6.466;2023-09-18T10:06:44;24.30;99.90
21149;DHT22;10732;51.472;6.466;2023-09-18T10:09:12;25.20;99.90
21149;DHT22;10732;51.472;6.466;2023-09-18T10:11:41;24.50;99.90
21149;DHT22;10732;51.472;6.466;2023-09-18T10:14:12;24.50;99.90
21149;DHT22;10732;51.472;6.466;2023-09-18T10:16:40;24.90;99.90
21149;DHT22;10732;51.472;6.466;2023-09-18T10:21:41;25.40;99.90
21149;DHT22;10732;51.472;6.466;2023-09-18T10:24:22;25.60;99.90
21149;DHT22;10732;51.472;6.466;2023-09-18T10:26:59;26.50;99.90
21149;DHT22;10732;51.472;6.466;2023-09-18T10:29:26;25.60;99.90
21149;DHT22;10732;51.472;6.466;2023-09-18T10:31:53;25.40;99.90
21149;DHT22;10732;51.472;6.466;2023-09-18T10:34:19;25.10;99.90
21149;DHT22;10732;51.472;6.466;2023-09-18T10:36:52;24.50;99.90
21149;DHT22;10732;51.472;6.466;2023-09-18T10:39:18;24.40;99.90
21149;DHT22;10732;51.472;6.466;2023-09-18T10:41:48;24.40;99.90
21149;DHT22;10732;51.472;6.466;2023-09-18T10:44:15;25.20;99.90
21149;DHT22;10732;51.472;6.466;2023-09-18T10:46:42;26.20;99.90
21149;DHT22;10732;51.472;6.466;2023-09-18T10:49:08;26.40;99.90
21149;DHT22;10732;51.472;6.466;2023-09-18T10:51:33;26.10;99.90
21149;DHT22;10732;51.472;6.466;2023-09-18T10:53:59;26.20;99.90
21149;DHT22;10732;51.472;6.466;2023-09-18T10:56:25;26.90;99.90
21149;DHT22;10732;51.472;6.466;2023-09-18T10:59:05;27.40;99.90
21149;DHT22;10732;51.472;6.466;2023-09-18T11:01:31;28.00;99.90
21149;DHT22;10732;51.472;6.466;2023-09-18T11:04:05;27.70;99.90
21149;DHT22;10732;51.472;6.466;2023-09-18T11:09:24;27.60;99.90
21149;DHT22;10732;51.472;6.466;2023-09-18T11:12:09;27.70;99.90
21149;DHT22;10732;51.472;6.466;2023-09-18T11:14:50;26.40;99.90
21149;DHT22;10732;51.472;6.466;2023-09-18T11:17:37;26.70;99.90
21149;DHT22;10732;51.472;6.466;2023-09-18T11:22:30;26.00;99.90
21149;DHT22;10732;51.472;6.466;2023-09-18T11:25:28;25.90;99.90
21149;DHT22;10732;51.472;6.466;2023-09-18T11:27:54;26.30;99.90
21149;DHT22;10732;51.472;6.466;2023-09-18T11:30:23;25.70;99.90
21149;DHT22;10732;51.472;6.466;2023-09-18T11:32:52;25.40;99.90
21149;DHT22;10732;51.472;6.466;2023-09-18T11:35:19;25.30;99.90
21149;DHT22;10732;51.472;6.466;2023-09-18T11:37:45;25.60;99.90
21149;DHT22;10732;51.472;6.466;2023-09-18T11:40:30;26.40;99.90
21149;DHT22;10732;51.472;6.466;2023-09-18T11:43:23;26.60;99.90
21149;DHT22;10732;51.472;6.466;2023-09-18T11:45:52;26.50;99.90
21149;DHT22;10732;51.472;6.466;2023-09-18T11:48:19;26.50;99.90
21149;DHT22;10732;51.472;6.466;2023-09-18T11:50:45;26.40;99.90
21149;DHT22;10732;51.472;6.466;2023-09-18T11:53:11;26.00;99.90
21149;DHT22;10732;51.472;6.466;2023-09-18T11:55:39;25.50;99.90
21149;DHT22;10732;51.472;6.466;2023-09-18T11:58:05;25.70;99.90
21149;DHT22;10732;51.472;6.466;2023-09-18T12:00:31;25.40;99.90
21149;DHT22;10732;51.472;6.466;2023-09-18T12:02:57;25.30;99.90
21149;DHT22;10732;51.472;6.466;2023-09-18T12:05:26;25.10;99.90
21149;DHT22;10732;51.472;6.466;2023-09-18T12:07:52;25.20;99.90
21149;DHT22;10732;51.472;6.466;2023-09-18T12:10:20;24.40;99.90
21149;DHT22;10732;51.472;6.466;2023-09-18T12:12:48;24.20;99.90
21149;DHT22;10732;51.472;6.466;2023-09-18T12:15:16;24.40;99.90
21149;DHT22;10732;51.472;6.466;2023-09-18T12:17:42;24.60;99.90
21149;DHT22;10732;51.472;6.466;2023-09-18T12:20:17;24.70;99.90
21149;DHT22;10732;51.472;6.466;2023-09-18T12:22:49;24.60;99.90
21149;DHT22;10732;51.472;6.466;2023-09-18T12:25:16;24.40;99.90
21149;DHT22;10732;51.472;6.466;2023-09-18T12:27:44;24.70;99.90
21149;DHT22;10732;51.472;6.466;2023-09-18T12:30:11;24.90;99.90
21149;DHT22;10732;51.472;6.466;2023-09-18T12:32:38;25.10;99.90
21149;DHT22;10732;51.472;6.466;2023-09-18T12:35:06;24.60;99.90
21149;DHT22;10732;51.472;6.466;2023-09-18T12:37:41;24.80;99.90
21149;DHT22;10732;51.472;6.466;2023-09-18T12:40:25;24.70;99.90
21149;DHT22;10732;51.472;6.466;2023-09-18T12:42:51;24.50;99.90
21149;DHT22;10732;51.472;6.466;2023-09-18T12:45:19;24.40;99.90
21149;DHT22;10732;51.472;6.466;2023-09-18T12:47:45;24.60;99.90
21149;DHT22;10732;51.472;6.466;2023-09-18T12:50:13;24.40;99.90
21149;DHT22;10732;51.472;6.466;2023-09-18T12:52:39;24.30;99.90
21149;DHT22;10732;51.472;6.466;2023-09-18T12:55:05;24.60;99.90
21149;DHT22;10732;51.472;6.466;2023-09-18T12:57:32;24.80;99.90
21149;DHT22;10732;51.472;6.466;2023-09-18T12:59:58;24.70;99.90
21149;DHT22;10732;51.472;6.466;2023-09-18T13:02:24;24.30;99.90
21149;DHT22;10732;51.472;6.466;2023-09-18T13:04:54;24.40;99.90
21149;DHT22;10732;51.472;6.466;2023-09-18T13:07:22;24.60;99.90
21149;DHT22;10732;51.472;6.466;2023-09-18T13:10:02;24.70;99.90
21149;DHT22;10732;51.472;6.466;2023-09-18T13:12:45;24.90;99.90
21149;DHT22;10732;51.472;6.466;2023-09-18T13:15:11;24.80;99.90
21149;DHT22;10732;51.472;6.466;2023-09-18T13:17:42;24.70;99.90
21149;DHT22;10732;51.472;6.466;2023-09-18T13:20:18;24.70;99.90
21149;DHT22;10732;51.472;6.466;2023-09-18T13:22:48;24.60;99.90
21149;DHT22;10732;51.472;6.466;2023-09-18T13:25:37;24.60;99.90
21149;DHT22;10732;51.472;6.466;2023-09-18T13:28:08;24.40;99.90
21149;DHT22;10732;51.472;6.466;2023-09-18T13:30:36;24.60;99.90
21149;DHT22;10732;51.472;6.466;2023-09-18T13:33:15;24.70;99.90
21149;DHT22;10732;51.472;6.466;2023-09-18T13:35:43;24.50;99.90
21149;DHT22;10732;51.472;6.466;2023-09-18T13:38:10;24.60;99.90
21149;DHT22;10732;51.472;6.466;2023-09-18T13:40:40;24.80;99.90
21149;DHT22;10732;51.472;6.466;2023-09-18T13:43:08;24.80;99.90
21149;DHT22;10732;51.472;6.466;2023-09-18T13:45:34;24.80;99.90
21149;DHT22;10732;51.472;6.466;2023-09-18T13:48:05;24.50;99.90
21149;DHT22;10732;51.472;6.466;2023-09-18T13:50:32;24.50;99.90
21149;DHT22;10732;51.472;6.466;2023-09-18T13:52:58;24.20;99.90
21149;DHT22;10732;51.472;6.466;2023-09-18T13:55:24;24.30;99.90
21149;DHT22;10732;51.472;6.466;2023-09-18T13:57:50;24.30;99.90
21149;DHT22;10732;51.472;6.466;2023-09-18T14:00:16;24.20;99.90
21149;DHT22;10732;51.472;6.466;2023-09-18T14:02:42;24.40;99.90
21149;DHT22;10732;51.472;6.466;2023-09-18T14:05:09;24.40;99.90
21149;DHT22;10732;51.472;6.466;2023-09-18T14:07:37;24.30;99.90
21149;DHT22;10732;51.472;6.466;2023-09-18T14:10:10;24.30;99.90
21149;DHT22;10732;51.472;6.466;2023-09-18T14:12:40;24.30;99.90
21149;DHT22;10732;51.472;6.466;2023-09-18T14:15:06;24.30;99.90
21149;DHT22;10732;51.472;6.466;2023-09-18T14:17:33;24.30;99.90
21149;DHT22;10732;51.472;6.466;2023-09-18T14:19:59;24.50;99.90
21149;DHT22;10732;51.472;6.466;2023-09-18T14:22:25;24.50;99.90
21149;DHT22;10732;51.472;6.466;2023-09-18T14:24:50;24.60;99.90
21149;DHT22;10732;51.472;6.466;2023-09-18T14:27:16;24.50;99.90
21149;DHT22;10732;51.472;6.466;2023-09-18T14:29:42;24.50;99.90
21149;DHT22;10732;51.472;6.466;2023-09-18T14:32:07;24.50;99.90
21149;DHT22;10732;51.472;6.466;2023-09-18T14:34:34;24.40;99.90
21149;DHT22;10732;51.472;6.466;2023-09-18T14:37:01;24.40;99.90
21149;DHT22;10732;51.472;6.466;2023-09-18T14:39:30;24.40;99.90
21149;DHT22;10732;51.472;6.466;2023-09-18T14:41:55;24.50;99.90
21149;DHT22;10732;51.472;6.466;2023-09-18T14:44:21;24.60;99.90
21149;DHT22;10732;51.472;6.466;2023-09-18T14:46:46;24.60;99.90
21149;DHT22;10732;51.472;6.466;2023-09-18T14:49:12;24.40;99.90
21149;DHT22;10732;51.472;6.466;2023-09-18T14:51:37;24.30;99.90
21149;DHT22;10732;51.472;6.466;2023-09-18T14:54:03;24.10;99.90
21149;DHT22;10732;51.472;6.466;2023-09-18T14:56:30;24.00;99.90
21149;DHT22;10732;51.472;6.466;2023-09-18T14:58:55;23.70;99.90
21149;DHT22;10732;51.472;6.466;2023-09-18T15:01:22;23.70;99.90
21149;DHT22;10732;51.472;6.466;2023-09-18T15:03:47;23.70;99.90
21149;DHT22;10732;51.472;6.466;2023-09-18T15:06:16;23.70;99.90
21149;DHT22;10732;51.472;6.466;2023-09-18T15:08:42;23.70;99.90
21149;DHT22;10732;51.472;6.466;2023-09-18T15:11:07;23.80;99.90
21149;DHT22;10732;51.472;6.466;2023-09-18T15:13:34;23.60;99.90
21149;DHT22;10732;51.472;6.466;2023-09-18T15:16:04;23.50;99.90
21149;DHT22;10732;51.472;6.466;2023-09-18T15:18:29;23.50;99.90
21149;DHT22;10732;51.472;6.466;2023-09-18T15:20:55;23.50;99.90
21149;DHT22;10732;51.472;6.466;2023-09-18T15:23:24;23.40;99.90
21149;DHT22;10732;51.472;6.466;2023-09-18T15:25:53;23.40;99.90
21149;DHT22;10732;51.472;6.466;2023-09-18T15:28:19;23.60;99.90
21149;DHT22;10732;51.472;6.466;2023-09-18T15:30:46;23.60;99.90
21149;DHT22;10732;51.472;6.466;2023-09-18T15:33:12;23.60;99.90
21149;DHT22;10732;51.472;6.466;2023-09-18T15:35:38;23.60;99.90
21149;DHT22;10732;51.472;6.466;2023-09-18T15:38:04;23.60;99.90
21149;DHT22;10732;51.472;6.466;2023-09-18T15:40:32;23.60;99.90
21149;DHT22;10732;51.472;6.466;2023-09-18T15:42:57;23.60;99.90